sensor_id;sensor_type;location;lat;lon;timestamp;pressure;altitude;pressure_sealevel;temperature;humidity
84775;BME280;75005;50.966;11.344;2024-01-15T00:00:12;97543.31;;;0.71;76.09
84775;BME280;75005;50.966;11.344;2024-01-15T00:02:38;97542.81;;;0.67;75.75
84775;BME280;75005;50.966;11.344;2024-01-15T00:05:04;97538.16;;;0.62;75.42
84775;BME280;75005;50.966;11.344;2024-01-15T00:07:29;97542.16;;;0.57;76.07
84775;BME280;75005;50.966;11.344;2024-01-15T00:09:55;97541.22;;;0.66;75.67
84775;BME280;75005;50.966;11.344;2024-01-15T00:12:20;97542.81;;;0.67;76.02
84775;BME280;75005;50.966;11.344;2024-01-15T00:14:46;97536.75;;;0.68;75.85
84775;BME280;75005;50.966;11.344;2024-01-15T00:17:11;97522.03;;;0.70;75.59
84775;BME280;75005;50.966;11.344;2024-01-15T00:19:36;97517.22;;;0.67;75.66
84775;BME280;75005;50.966;11.344;2024-01-15T00:22:02;97519.94;;;0.65;77.20
84775;BME280;75005;50.966;11.344;2024-01-15T00:24:27;97509.03;;;0.55;76.67
84775;BME280;75005;50.966;11.344;2024-01-15T00:26:53;97518.81;;;0.60;75.70
84775;BME280;75005;50.966;11.344;2024-01-15T00:29:19;97515.28;;;0.53;76.02
84775;BME280;75005;50.966;11.344;2024-01-15T00:31:44;97498.47;;;0.42;76.68
84775;BME280;75005;50.966;11.344;2024-01-15T00:34:10;97517.03;;;0.44;77.47
84775;BME280;75005;50.966;11.344;2024-01-15T00:36:35;97521.34;;;0.52;76.87
84775;BME280;75005;50.966;11.344;2024-01-15T00:39:01;97509.38;;;0.52;76.75
84775;BME280;75005;50.966;11.344;2024-01-15T00:41:26;97515.75;;;0.40;76.44
84775;BME280;75005;50.966;11.344;2024-01-15T00:43:53;97534.00;;;0.53;76.04
84775;BME280;75005;50.966;11.344;2024-01-15T00:46:18;97524.22;;;0.49;76.33
84775;BME280;75005;50.966;11.344;2024-01-15T00:48:44;97525.03;;;0.49;76.72
84775;BME280;75005;50.966;11.344;2024-01-15T00:51:10;97516.41;;;0.50;77.02
84775;BME280;75005;50.966;11.344;2024-01-15T00:53:35;97508.25;;;0.47;76.63
84775;BME280;75005;50.966;11.344;2024-01-15T00:56:00;97506.78;;;0.44;76.38
84775;BME280;75005;50.966;11.344;2024-01-15T00:58:26;97502.16;;;0.40;76.12
84775;BME280;75005;50.966;11.344;2024-01-15T01:00:52;97501.84;;;0.43;77.25
84775;BME280;75005;50.966;11.344;2024-01-15T01:03:18;97492.72;;;0.40;76.94
84775;BME280;75005;50.966;11.344;2024-01-15T01:05:43;97495.91;;;0.42;75.82
84775;BME280;75005;50.966;11.344;2024-01-15T01:08:10;97493.84;;;0.29;76.06
84775;BME280;75005;50.966;11.344;2024-01-15T01:10:35;97484.38;;;0.14;76.42
84775;BME280;75005;50.966;11.344;2024-01-15T01:13:00;97493.97;;;0.20;76.95
84775;BME280;75005;50.966;11.344;2024-01-15T01:15:26;97514.63;;;0.26;76.57
84775;BME280;75005;50.966;11.344;2024-01-15T01:17:52;97496.38;;;0.13;76.45
84775;BME280;75005;50.966;11.344;2024-01-15T01:20:18;97516.84;;;0.21;75.74
84775;BME280;75005;50.966;11.344;2024-01-15T01:22:43;97514.59;;;0.18;75.59
84775;BME280;75005;50.966;11.344;2024-01-15T01:25:09;97517.34;;;0.25;76.08
84775;BME280;75005;50.966;11.344;2024-01-15T01:27:35;97506.63;;;0.21;75.76
84775;BME280;75005;50.966;11.344;2024-01-15T01:30:01;97518.63;;;0.29;75.72
84775;BME280;75005;50.966;11.344;2024-01-15T01:32:26;97494.66;;;0.30;75.35
84775;BME280;75005;50.966;11.344;2024-01-15T01:34:52;97491.91;;;0.15;76.03
84775;BME280;75005;50.966;11.344;2024-01-15T01:37:18;97496.88;;;0.25;75.16
84775;BME280;75005;50.966;11.344;2024-01-15T01:39:43;97494.63;;;0.22;75.54
84775;BME280;75005;50.966;11.344;2024-01-15T01:42:09;97487.75;;;0.22;75.15
84775;BME280;75005;50.966;11.344;2024-01-15T01:44:35;97466.19;;;0.25;75.04
84775;BME280;75005;50.966;11.344;2024-01-15T01:47:01;97482.50;;;0.32;74.55
84775;BME280;75005;50.966;11.344;2024-01-15T01:49:27;97480.25;;;0.29;74.51
84775;BME280;75005;50.966;11.344;2024-01-15T01:51:57;97461.22;;;0.31;75.34
84775;BME280;75005;50.966;11.344;2024-01-15T01:54:22;97473.84;;;0.41;74.24
84775;BME280;75005;50.966;11.344;2024-01-15T01:56:48;97474.97;;;0.47;74.34
84775;BME280;75005;50.966;11.344;2024-01-15T01:59:15;97483.59;;;0.46;74.32
84775;BME280;75005;50.966;11.344;2024-01-15T02:01:41;97473.38;;;0.38;73.77
84775;BME280;75005;50.966;11.344;2024-01-15T02:04:07;97476.59;;;0.31;74.46
84775;BME280;75005;50.966;11.344;2024-01-15T02:06:33;97487.63;;;0.32;74.50
84775;BME280;75005;50.966;11.344;2024-01-15T02:08:59;97485.19;;;0.39;73.70
84775;BME280;75005;50.966;11.344;2024-01-15T02:11:24;97476.91;;;0.28;74.01
84775;BME280;75005;50.966;11.344;2024-01-15T02:13:50;97484.09;;;0.33;74.11
84775;BME280;75005;50.966;11.344;2024-01-15T02:16:15;97484.25;;;0.40;73.93
84775;BME280;75005;50.966;11.344;2024-01-15T02:18:45;97464.59;;;0.32;73.84
84775;BME280;75005;50.966;11.344;2024-01-15T02:21:11;97467.28;;;0.39;73.02
84775;BME280;75005;50.966;11.344;2024-01-15T02:23:37;97460.59;;;0.29;74.24
84775;BME280;75005;50.966;11.344;2024-01-15T02:26:04;97450.19;;;0.15;73.96
84775;BME280;75005;50.966;11.344;2024-01-15T02:28:30;97460.75;;;0.20;74.17
84775;BME280;75005;50.966;11.344;2024-01-15T02:30:57;97464.41;;;0.17;74.43
84775;BME280;75005;50.966;11.344;2024-01-15T02:33:23;97473.34;;;0.13;73.95
84775;BME280;75005;50.966;11.344;2024-01-15T02:35:48;97463.44;;;0.10;75.18
84775;BME280;75005;50.966;11.344;2024-01-15T02:38:16;97479.75;;;0.17;75.00
84775;BME280;75005;50.966;11.344;2024-01-15T02:40:42;97481.03;;;0.21;74.39
84775;BME280;75005;50.966;11.344;2024-01-15T02:43:08;97478.81;;;0.26;74.01
84775;BME280;75005;50.966;11.344;2024-01-15T02:45:34;97481.38;;;0.26;74.00
84775;BME280;75005;50.966;11.344;2024-01-15T02:47:59;97485.22;;;0.30;73.74
84775;BME280;75005;50.966;11.344;2024-01-15T02:50:24;97471.78;;;0.28;73.85
84775;BME280;75005;50.966;11.344;2024-01-15T02:52:50;97472.91;;;0.26;73.36
84775;BME280;75005;50.966;11.344;2024-01-15T02:55:15;97474.97;;;0.30;73.63
84775;BME280;75005;50.966;11.344;2024-01-15T02:57:41;97467.63;;;0.27;73.79
84775;BME280;75005;50.966;11.344;2024-01-15T03:00:07;97466.81;;;0.19;73.68
84775;BME280;75005;50.966;11.344;2024-01-15T03:02:35;97476.25;;;0.18;74.08
84775;BME280;75005;50.966;11.344;2024-01-15T03:05:01;97464.41;;;0.17;73.20
84775;BME280;75005;50.966;11.344;2024-01-15T03:07:27;97475.13;;;0.21;73.71
84775;BME280;75005;50.966;11.344;2024-01-15T03:09:53;97474.00;;;0.23;73.61
84775;BME280;75005;50.966;11.344;2024-01-15T03:12:18;97481.81;;;0.14;73.71
84775;BME280;75005;50.966;11.344;2024-01-15T03:14:44;97490.63;;;0.19;74.80
84775;BME280;75005;50.966;11.344;2024-01-15T03:17:09;97476.09;;;0.28;73.62
84775;BME280;75005;50.966;11.344;2024-01-15T03:19:36;97480.41;;;0.27;73.33
84775;BME280;75005;50.966;11.344;2024-01-15T03:22:01;97469.72;;;0.32;73.60
84775;BME280;75005;50.966;11.344;2024-01-15T03:24:29;97463.94;;;0.30;74.02
84775;BME280;75005;50.966;11.344;2024-01-15T03:26:54;97462.50;;;0.19;73.99
84775;BME280;75005;50.966;11.344;2024-01-15T03:29:19;97450.34;;;0.21;73.91
84775;BME280;75005;50.966;11.344;2024-01-15T03:31:45;97444.56;;;0.11;74.78
84775;BME280;75005;50.966;11.344;2024-01-15T03:34:11;97443.28;;;0.07;74.95
84775;BME280;75005;50.966;11.344;2024-01-15T03:36:36;97441.03;;;0.04;74.92
84775;BME280;75005;50.966;11.344;2024-01-15T03:39:02;97444.72;;;0.02;74.32
84775;BME280;75005;50.966;11.344;2024-01-15T03:41:27;97448.06;;;0.02;74.54
84775;BME280;75005;50.966;11.344;2024-01-15T03:43:53;97450.16;;;-0.02;75.24
84775;BME280;75005;50.966;11.344;2024-01-15T03:46:18;97443.63;;;-0.04;74.98
84775;BME280;75005;50.966;11.344;2024-01-15T03:48:44;97448.22;;;0.00;74.22
84775;BME280;75005;50.966;11.344;2024-01-15T03:51:09;97452.88;;;-0.03;74.78
84775;BME280;75005;50.966;11.344;2024-01-15T03:53:34;97458.31;;;-0.06;75.12
84775;BME280;75005;50.966;11.344;2024-01-15T03:56:00;97454.16;;;-0.07;75.47
84775;BME280;75005;50.966;11.344;2024-01-15T03:58:25;97452.84;;;-0.19;76.08
84775;BME280;75005;50.966;11.344;2024-01-15T04:00:50;97444.84;;;-0.24;75.64
84775;BME280;75005;50.966;11.344;2024-01-15T04:03:16;97464.47;;;-0.25;76.81
84775;BME280;75005;50.966;11.344;2024-01-15T04:05:42;97447.06;;;-0.29;75.49
84775;BME280;75005;50.966;11.344;2024-01-15T04:08:07;97456.00;;;-0.25;75.97
84775;BME280;75005;50.966;11.344;2024-01-15T04:10:33;97458.53;;;-0.34;76.24
84775;BME280;75005;50.966;11.344;2024-01-15T04:12:58;97450.06;;;-0.34;76.56
84775;BME280;75005;50.966;11.344;2024-01-15T04:15:25;97469.56;;;-0.33;76.41
84775;BME280;75005;50.966;11.344;2024-01-15T04:17:51;97466.19;;;-0.34;75.83
84775;BME280;75005;50.966;11.344;2024-01-15T04:20:17;97464.78;;;-0.28;76.06
84775;BME280;75005;50.966;11.344;2024-01-15T04:22:43;97466.50;;;-0.37;75.98
84775;BME280;75005;50.966;11.344;2024-01-15T04:25:09;97465.56;;;-0.44;76.57
84775;BME280;75005;50.966;11.344;2024-01-15T04:27:34;97464.91;;;-0.46;76.62
84775;BME280;75005;50.966;11.344;2024-01-15T04:30:00;97462.16;;;-0.52;76.95
84775;BME280;75005;50.966;11.344;2024-01-15T04:32:25;97475.59;;;-0.50;77.38
84775;BME280;75005;50.966;11.344;2024-01-15T04:34:50;97477.97;;;-0.49;77.40
84775;BME280;75005;50.966;11.344;2024-01-15T04:37:16;97471.44;;;-0.51;77.63
84775;BME280;75005;50.966;11.344;2024-01-15T04:39:41;97472.03;;;-0.57;77.05
84775;BME280;75005;50.966;11.344;2024-01-15T04:42:07;97487.84;;;-0.54;76.48
84775;BME280;75005;50.966;11.344;2024-01-15T04:44:32;97480.69;;;-0.50;76.56
84775;BME280;75005;50.966;11.344;2024-01-15T04:46:58;97472.19;;;-0.59;77.47
84775;BME280;75005;50.966;11.344;2024-01-15T04:49:23;97477.47;;;-0.52;76.66
84775;BME280;75005;50.966;11.344;2024-01-15T04:51:51;97463.09;;;-0.53;76.93
84775;BME280;75005;50.966;11.344;2024-01-15T04:54:17;97476.34;;;-0.58;77.25
84775;BME280;75005;50.966;11.344;2024-01-15T04:56:43;97475.59;;;-0.50;76.68
84775;BME280;75005;50.966;11.344;2024-01-15T04:59:09;97474.47;;;-0.48;76.71
84775;BME280;75005;50.966;11.344;2024-01-15T05:01:35;97473.56;;;-0.39;76.44
84775;BME280;75005;50.966;11.344;2024-01-15T05:04:00;97463.94;;;-0.45;75.87
84775;BME280;75005;50.966;11.344;2024-01-15T05:06:25;97462.22;;;-0.28;75.82
84775;BME280;75005;50.966;11.344;2024-01-15T05:08:51;97452.16;;;-0.29;75.79
84775;BME280;75005;50.966;11.344;2024-01-15T05:11:16;97455.66;;;-0.30;75.19
84775;BME280;75005;50.966;11.344;2024-01-15T05:13:41;97455.38;;;-0.27;75.67
84775;BME280;75005;50.966;11.344;2024-01-15T05:16:07;97436.19;;;-0.31;75.87
84775;BME280;75005;50.966;11.344;2024-01-15T05:18:33;97438.59;;;-0.38;76.51
84775;BME280;75005;50.966;11.344;2024-01-15T05:20:58;97432.69;;;-0.39;75.03
84775;BME280;75005;50.966;11.344;2024-01-15T05:23:24;97432.97;;;-0.42;75.08
84775;BME280;75005;50.966;11.344;2024-01-15T05:25:49;97426.59;;;-0.46;74.84
84775;BME280;75005;50.966;11.344;2024-01-15T05:28:14;97448.31;;;-0.42;75.80
84775;BME280;75005;50.966;11.344;2024-01-15T05:30:40;97434.84;;;-0.52;75.34
84775;BME280;75005;50.966;11.344;2024-01-15T05:33:05;97434.06;;;-0.52;75.29
84775;BME280;75005;50.966;11.344;2024-01-15T05:35:32;97436.63;;;-0.52;74.40
84775;BME280;75005;50.966;11.344;2024-01-15T05:37:58;97435.50;;;-0.50;75.07
84775;BME280;75005;50.966;11.344;2024-01-15T05:40:23;97433.72;;;-0.57;75.67
84775;BME280;75005;50.966;11.344;2024-01-15T05:42:49;97423.00;;;-0.61;75.76
84775;BME280;75005;50.966;11.344;2024-01-15T05:45:14;97399.72;;;-0.58;75.95
84775;BME280;75005;50.966;11.344;2024-01-15T05:47:40;97415.06;;;-0.50;74.20
84775;BME280;75005;50.966;11.344;2024-01-15T05:50:05;97404.19;;;-0.52;74.42
84775;BME280;75005;50.966;11.344;2024-01-15T05:52:32;97402.28;;;-0.50;74.65
84775;BME280;75005;50.966;11.344;2024-01-15T05:54:57;97411.72;;;-0.50;74.44
84775;BME280;75005;50.966;11.344;2024-01-15T05:57:23;97402.75;;;-0.54;75.04
84775;BME280;75005;50.966;11.344;2024-01-15T05:59:48;97414.09;;;-0.57;74.79
84775;BME280;75005;50.966;11.344;2024-01-15T06:02:14;97407.25;;;-0.48;73.97
84775;BME280;75005;50.966;11.344;2024-01-15T06:04:39;97404.88;;;-0.42;73.80
84775;BME280;75005;50.966;11.344;2024-01-15T06:07:04;97398.63;;;-0.47;74.61
84775;BME280;75005;50.966;11.344;2024-01-15T06:09:30;97420.81;;;-0.48;74.83
84775;BME280;75005;50.966;11.344;2024-01-15T06:11:56;97414.91;;;-0.48;74.97
84775;BME280;75005;50.966;11.344;2024-01-15T06:14:22;97401.66;;;-0.52;75.43
84775;BME280;75005;50.966;11.344;2024-01-15T06:16:47;97397.53;;;-0.45;74.67
84775;BME280;75005;50.966;11.344;2024-01-15T06:19:13;97389.41;;;-0.40;73.97
84775;BME280;75005;50.966;11.344;2024-01-15T06:21:38;97406.78;;;-0.36;72.93
84775;BME280;75005;50.966;11.344;2024-01-15T06:24:03;97413.97;;;-0.31;73.55
84775;BME280;75005;50.966;11.344;2024-01-15T06:26:29;97416.06;;;-0.35;74.47
84775;BME280;75005;50.966;11.344;2024-01-15T06:28:55;97415.41;;;-0.37;73.99
84775;BME280;75005;50.966;11.344;2024-01-15T06:31:20;97412.22;;;-0.39;73.78
84775;BME280;75005;50.966;11.344;2024-01-15T06:33:46;97417.34;;;-0.39;73.79
84775;BME280;75005;50.966;11.344;2024-01-15T06:36:13;97406.31;;;-0.39;74.47
84775;BME280;75005;50.966;11.344;2024-01-15T06:38:39;97413.03;;;-0.38;74.10
84775;BME280;75005;50.966;11.344;2024-01-15T06:41:04;97408.38;;;-0.43;73.85
84775;BME280;75005;50.966;11.344;2024-01-15T06:43:29;97406.94;;;-0.45;73.67
84775;BME280;75005;50.966;11.344;2024-01-15T06:45:55;97412.53;;;-0.42;73.67
84775;BME280;75005;50.966;11.344;2024-01-15T06:48:20;97402.59;;;-0.53;74.08
84775;BME280;75005;50.966;11.344;2024-01-15T06:50:46;97406.78;;;-0.44;73.68
84775;BME280;75005;50.966;11.344;2024-01-15T06:53:11;97407.44;;;-0.42;72.99
84775;BME280;75005;50.966;11.344;2024-01-15T06:55:38;97404.56;;;-0.39;73.19
84775;BME280;75005;50.966;11.344;2024-01-15T06:58:03;97413.19;;;-0.40;73.07
84775;BME280;75005;50.966;11.344;2024-01-15T07:00:29;97414.16;;;-0.41;73.03
84775;BME280;75005;50.966;11.344;2024-01-15T07:02:54;97408.06;;;-0.40;72.79
84775;BME280;75005;50.966;11.344;2024-01-15T07:05:23;97414.00;;;-0.39;73.30
84775;BME280;75005;50.966;11.344;2024-01-15T07:07:49;97405.03;;;-0.43;73.36
84775;BME280;75005;50.966;11.344;2024-01-15T07:10:15;97405.19;;;-0.45;73.31
84775;BME280;75005;50.966;11.344;2024-01-15T07:12:44;97407.59;;;-0.35;72.75
84775;BME280;75005;50.966;11.344;2024-01-15T07:15:10;97402.34;;;-0.25;72.75
84775;BME280;75005;50.966;11.344;2024-01-15T07:17:35;97412.75;;;-0.19;72.38
84775;BME280;75005;50.966;11.344;2024-01-15T07:20:07;97408.13;;;-0.15;71.83
84775;BME280;75005;50.966;11.344;2024-01-15T07:22:33;97409.41;;;-0.11;71.13
84775;BME280;75005;50.966;11.344;2024-01-15T07:24:59;97413.56;;;-0.02;70.53
84775;BME280;75005;50.966;11.344;2024-01-15T07:27:24;97414.84;;;0.02;70.86
84775;BME280;75005;50.966;11.344;2024-01-15T07:29:50;97420.44;;;0.06;70.91
84775;BME280;75005;50.966;11.344;2024-01-15T07:32:15;97414.03;;;0.02;72.03
84775;BME280;75005;50.966;11.344;2024-01-15T07:34:41;97414.53;;;-0.03;71.69
84775;BME280;75005;50.966;11.344;2024-01-15T07:37:06;97426.34;;;-0.10;72.40
84775;BME280;75005;50.966;11.344;2024-01-15T07:39:33;97426.16;;;-0.17;72.44
84775;BME280;75005;50.966;11.344;2024-01-15T07:41:58;97432.84;;;-0.24;72.46
84775;BME280;75005;50.966;11.344;2024-01-15T07:44:23;97431.09;;;-0.23;72.14
84775;BME280;75005;50.966;11.344;2024-01-15T07:46:49;97430.94;;;-0.22;72.39
84775;BME280;75005;50.966;11.344;2024-01-15T07:49:14;97439.09;;;-0.18;71.67
84775;BME280;75005;50.966;11.344;2024-01-15T07:51:40;97437.84;;;-0.14;71.22
84775;BME280;75005;50.966;11.344;2024-01-15T07:54:06;97430.00;;;-0.21;72.27
84775;BME280;75005;50.966;11.344;2024-01-15T07:56:31;97433.50;;;-0.22;71.62
84775;BME280;75005;50.966;11.344;2024-01-15T07:58:57;97435.06;;;-0.29;72.98
84775;BME280;75005;50.966;11.344;2024-01-15T08:01:22;97437.16;;;-0.24;71.77
84775;BME280;75005;50.966;11.344;2024-01-15T08:03:47;97442.13;;;-0.23;72.37
84775;BME280;75005;50.966;11.344;2024-01-15T08:06:13;97437.31;;;-0.26;71.93
84775;BME280;75005;50.966;11.344;2024-01-15T08:08:38;97430.00;;;-0.21;72.44
84775;BME280;75005;50.966;11.344;2024-01-15T08:11:04;97425.69;;;-0.20;71.84
84775;BME280;75005;50.966;11.344;2024-01-15T08:13:30;97431.13;;;-0.15;72.79
84775;BME280;75005;50.966;11.344;2024-01-15T08:15:55;97418.84;;;-0.12;72.62
84775;BME280;75005;50.966;11.344;2024-01-15T08:18:21;97402.03;;;-0.22;72.62
84775;BME280;75005;50.966;11.344;2024-01-15T08:20:47;97413.84;;;-0.21;72.33
84775;BME280;75005;50.966;11.344;2024-01-15T08:23:13;97419.13;;;-0.23;72.14
84775;BME280;75005;50.966;11.344;2024-01-15T08:25:38;97425.38;;;-0.17;72.44
84775;BME280;75005;50.966;11.344;2024-01-15T08:28:04;97424.72;;;-0.19;71.87
84775;BME280;75005;50.966;11.344;2024-01-15T08:30:29;97417.06;;;-0.11;72.07
84775;BME280;75005;50.966;11.344;2024-01-15T08:32:55;97421.22;;;-0.10;71.65
84775;BME280;75005;50.966;11.344;2024-01-15T08:35:21;97416.13;;;-0.10;71.69
84775;BME280;75005;50.966;11.344;2024-01-15T08:37:54;97433.53;;;-0.06;71.52
84775;BME280;75005;50.966;11.344;2024-01-15T08:43:05;97418.06;;;-0.04;71.06
84775;BME280;75005;50.966;11.344;2024-01-15T08:45:32;97414.53;;;0.21;70.07
84775;BME280;75005;50.966;11.344;2024-01-15T08:47:57;97406.22;;;0.27;69.87
84775;BME280;75005;50.966;11.344;2024-01-15T08:50:23;97413.88;;;0.44;69.81
84775;BME280;75005;50.966;11.344;2024-01-15T08:52:48;97423.81;;;0.55;68.51
84775;BME280;75005;50.966;11.344;2024-01-15T08:55:13;97431.63;;;0.61;69.16
84775;BME280;75005;50.966;11.344;2024-01-15T08:57:39;97429.72;;;0.63;68.80
84775;BME280;75005;50.966;11.344;2024-01-15T09:00:05;97424.75;;;0.54;68.89
84775;BME280;75005;50.966;11.344;2024-01-15T09:02:34;97432.91;;;0.65;69.05
84775;BME280;75005;50.966;11.344;2024-01-15T09:05:00;97429.50;;;0.89;67.44
84775;BME280;75005;50.966;11.344;2024-01-15T09:07:25;97441.66;;;0.95;67.22
84775;BME280;75005;50.966;11.344;2024-01-15T09:09:52;97444.53;;;1.09;67.10
84775;BME280;75005;50.966;11.344;2024-01-15T09:12:17;97431.00;;;1.23;66.27
84775;BME280;75005;50.966;11.344;2024-01-15T09:14:44;97430.63;;;1.42;65.48
84775;BME280;75005;50.966;11.344;2024-01-15T09:17:09;97427.75;;;1.37;66.05
84775;BME280;75005;50.966;11.344;2024-01-15T09:19:35;97429.25;;;1.23;66.13
84775;BME280;75005;50.966;11.344;2024-01-15T09:22:00;97436.94;;;1.23;66.43
84775;BME280;75005;50.966;11.344;2024-01-15T09:24:26;97424.03;;;1.48;65.26
84775;BME280;75005;50.966;11.344;2024-01-15T09:26:51;97427.75;;;1.45;65.51
84775;BME280;75005;50.966;11.344;2024-01-15T09:29:17;97421.75;;;1.53;64.85
84775;BME280;75005;50.966;11.344;2024-01-15T09:31:43;97420.28;;;1.58;64.88
84775;BME280;75005;50.966;11.344;2024-01-15T09:34:09;97419.31;;;1.59;65.05
84775;BME280;75005;50.966;11.344;2024-01-15T09:36:39;97422.19;;;1.64;65.52
84775;BME280;75005;50.966;11.344;2024-01-15T09:39:06;97424.28;;;1.61;64.09
84775;BME280;75005;50.966;11.344;2024-01-15T09:41:37;97415.16;;;1.58;64.72
84775;BME280;75005;50.966;11.344;2024-01-15T09:44:03;97428.06;;;1.73;64.57
84775;BME280;75005;50.966;11.344;2024-01-15T09:46:31;97431.16;;;1.60;65.26
84775;BME280;75005;50.966;11.344;2024-01-15T09:48:57;97431.09;;;1.77;64.51
84775;BME280;75005;50.966;11.344;2024-01-15T09:51:24;97413.94;;;1.77;65.10
84775;BME280;75005;50.966;11.344;2024-01-15T09:53:50;97433.34;;;1.80;65.33
84775;BME280;75005;50.966;11.344;2024-01-15T09:56:16;97426.28;;;1.82;64.18
84775;BME280;75005;50.966;11.344;2024-01-15T09:58:42;97413.53;;;1.88;64.54
84775;BME280;75005;50.966;11.344;2024-01-15T10:01:08;97411.44;;;1.92;65.31
84775;BME280;75005;50.966;11.344;2024-01-15T10:03:34;97410.75;;;1.98;64.98
84775;BME280;75005;50.966;11.344;2024-01-15T10:06:00;97397.34;;;1.88;65.02
84775;BME280;75005;50.966;11.344;2024-01-15T10:08:25;97410.31;;;1.94;64.27
84775;BME280;75005;50.966;11.344;2024-01-15T10:10:51;97400.72;;;1.88;65.43
84775;BME280;75005;50.966;11.344;2024-01-15T10:13:17;97419.53;;;1.81;65.46
84775;BME280;75005;50.966;11.344;2024-01-15T10:15:45;97427.16;;;1.66;65.64
84775;BME280;75005;50.966;11.344;2024-01-15T10:18:12;97428.84;;;1.82;65.74
84775;BME280;75005;50.966;11.344;2024-01-15T10:20:37;97410.75;;;1.75;65.59
84775;BME280;75005;50.966;11.344;2024-01-15T10:23:03;97412.13;;;1.86;65.46
84775;BME280;75005;50.966;11.344;2024-01-15T10:25:29;97402.44;;;1.96;65.09
84775;BME280;75005;50.966;11.344;2024-01-15T10:28:04;97405.63;;;1.98;64.63
84775;BME280;75005;50.966;11.344;2024-01-15T10:30:30;97408.19;;;1.98;65.56
84775;BME280;75005;50.966;11.344;2024-01-15T10:33:00;97406.72;;;2.04;64.60
84775;BME280;75005;50.966;11.344;2024-01-15T10:35:27;97420.69;;;2.01;64.58
84775;BME280;75005;50.966;11.344;2024-01-15T10:37:53;97407.34;;;1.83;64.83
84775;BME280;75005;50.966;11.344;2024-01-15T10:40:19;97412.03;;;1.79;66.04
84775;BME280;75005;50.966;11.344;2024-01-15T10:42:44;97405.72;;;1.59;66.54
84775;BME280;75005;50.966;11.344;2024-01-15T10:45:10;97404.81;;;1.75;66.68
84775;BME280;75005;50.966;11.344;2024-01-15T10:47:35;97406.31;;;1.69;65.70
84775;BME280;75005;50.966;11.344;2024-01-15T10:50:02;97396.59;;;1.56;65.92
84775;BME280;75005;50.966;11.344;2024-01-15T10:52:28;97394.84;;;1.49;66.65
84775;BME280;75005;50.966;11.344;2024-01-15T10:54:54;97406.44;;;1.45;67.49
84775;BME280;75005;50.966;11.344;2024-01-15T10:57:21;97399.28;;;1.63;66.06
84775;BME280;75005;50.966;11.344;2024-01-15T10:59:47;97398.09;;;1.74;66.20
84775;BME280;75005;50.966;11.344;2024-01-15T11:02:13;97407.34;;;1.83;65.77
84775;BME280;75005;50.966;11.344;2024-01-15T11:04:39;97402.94;;;1.68;66.04
84775;BME280;75005;50.966;11.344;2024-01-15T11:07:05;97411.63;;;1.59;66.28
84775;BME280;75005;50.966;11.344;2024-01-15T11:09:34;97373.47;;;1.64;66.47
84775;BME280;75005;50.966;11.344;2024-01-15T11:12:08;97401.34;;;1.90;65.42
84775;BME280;75005;50.966;11.344;2024-01-15T11:14:40;97405.16;;;1.94;66.15
84775;BME280;75005;50.966;11.344;2024-01-15T11:17:09;97410.63;;;1.91;66.32
84775;BME280;75005;50.966;11.344;2024-01-15T11:19:36;97402.50;;;1.88;65.83
84775;BME280;75005;50.966;11.344;2024-01-15T11:22:02;97392.97;;;1.96;65.57
84775;BME280;75005;50.966;11.344;2024-01-15T11:24:40;97397.88;;;2.06;65.18
84775;BME280;75005;50.966;11.344;2024-01-15T11:27:09;97397.59;;;2.01;64.64
84775;BME280;75005;50.966;11.344;2024-01-15T11:29:36;97394.34;;;2.07;64.62
84775;BME280;75005;50.966;11.344;2024-01-15T11:32:03;97404.06;;;2.20;64.61
84775;BME280;75005;50.966;11.344;2024-01-15T11:37:16;97400.13;;;2.61;63.63
84775;BME280;75005;50.966;11.344;2024-01-15T11:39:43;97394.25;;;2.76;62.54
84775;BME280;75005;50.966;11.344;2024-01-15T11:42:10;97398.06;;;2.80;62.66
84775;BME280;75005;50.966;11.344;2024-01-15T11:44:37;97398.31;;;2.70;62.88
84775;BME280;75005;50.966;11.344;2024-01-15T11:50:04;97368.97;;;2.64;62.80
84775;BME280;75005;50.966;11.344;2024-01-15T11:52:38;97385.63;;;2.54;63.42
84775;BME280;75005;50.966;11.344;2024-01-15T11:55:11;97371.63;;;2.42;64.62
84775;BME280;75005;50.966;11.344;2024-01-15T12:00:08;97365.00;;;2.47;62.99
84775;BME280;75005;50.966;11.344;2024-01-15T12:02:34;97357.03;;;2.57;63.05
84775;BME280;75005;50.966;11.344;2024-01-15T12:04:59;97375.13;;;2.78;63.15
84775;BME280;75005;50.966;11.344;2024-01-15T12:07:25;97364.66;;;2.65;63.05
84775;BME280;75005;50.966;11.344;2024-01-15T12:09:50;97365.72;;;2.56;62.81
84775;BME280;75005;50.966;11.344;2024-01-15T12:15:07;97347.81;;;2.62;63.48
84775;BME280;75005;50.966;11.344;2024-01-15T12:17:33;97346.16;;;2.69;63.28
84775;BME280;75005;50.966;11.344;2024-01-15T12:19:58;97355.34;;;2.64;63.63
84775;BME280;75005;50.966;11.344;2024-01-15T12:22:24;97349.41;;;2.49;63.45
84775;BME280;75005;50.966;11.344;2024-01-15T12:24:49;97355.25;;;2.43;64.03
84775;BME280;75005;50.966;11.344;2024-01-15T12:27:15;97353.72;;;2.33;64.57
84775;BME280;75005;50.966;11.344;2024-01-15T12:29:43;97352.47;;;2.29;64.63
84775;BME280;75005;50.966;11.344;2024-01-15T12:32:09;97347.34;;;2.29;64.73
84775;BME280;75005;50.966;11.344;2024-01-15T12:34:34;97365.31;;;2.29;64.75
84775;BME280;75005;50.966;11.344;2024-01-15T12:37:00;97368.47;;;2.17;65.57
84775;BME280;75005;50.966;11.344;2024-01-15T12:39:25;97366.31;;;2.06;66.72
84775;BME280;75005;50.966;11.344;2024-01-15T12:41:51;97371.56;;;2.12;66.75
84775;BME280;75005;50.966;11.344;2024-01-15T12:44:17;97373.09;;;2.36;66.23
84775;BME280;75005;50.966;11.344;2024-01-15T12:46:42;97363.41;;;2.61;65.12
84775;BME280;75005;50.966;11.344;2024-01-15T12:49:08;97354.47;;;2.57;65.24
84775;BME280;75005;50.966;11.344;2024-01-15T12:51:36;97362.94;;;2.43;64.76
84775;BME280;75005;50.966;11.344;2024-01-15T12:54:02;97352.69;;;2.43;65.55
84775;BME280;75005;50.966;11.344;2024-01-15T12:56:27;97361.44;;;2.48;65.17
84775;BME280;75005;50.966;11.344;2024-01-15T12:58:52;97360.09;;;2.38;65.25
84775;BME280;75005;50.966;11.344;2024-01-15T13:01:18;97368.34;;;2.10;66.74
84775;BME280;75005;50.966;11.344;2024-01-15T13:03:43;97364.41;;;2.22;66.95